sensor_id;sensor_type;location;lat;lon;timestamp;temperature;humidity
6018;DHT22;3037;51.068;13.780;2023-04-06T00:00:39;1.60;99.90
6018;DHT22;3037;51.068;13.780;2023-04-06T00:03:05;1.50;99.90
6018;DHT22;3037;51.068;13.780;2023-04-06T00:05:31;1.40;99.90
6018;DHT22;3037;51.068;13.780;2023-04-06T00:07:59;1.30;99.90
6018;DHT22;3037;51.068;13.780;2023-04-06T00:10:25;1.30;99.90
6018;DHT22;3037;51.068;13.780;2023-04-06T00:12:51;1.30;99.90
6018;DHT22;3037;51.068;13.780;2023-04-06T00:15:17;1.30;99.90
6018;DHT22;3037;51.068;13.780;2023-04-06T00:17:42;1.30;99.90
6018;DHT22;3037;51.068;13.780;2023-04-06T00:20:08;1.30;99.90
6018;DHT22;3037;51.068;13.780;2023-04-06T00:22:34;1.40;12.70
6018;DHT22;3037;51.068;13.780;2023-04-06T00:24:59;1.40;1.00
6018;DHT22;3037;51.068;13.780;2023-04-06T00:27:25;1.30;20.70
6018;DHT22;3037;51.068;13.780;2023-04-06T00:29:50;1.20;21.40
6018;DHT22;3037;51.068;13.780;2023-04-06T00:32:16;1.10;99.90
6018;DHT22;3037;51.068;13.780;2023-04-06T00:34:41;1.20;99.90
6018;DHT22;3037;51.068;13.780;2023-04-06T00:37:07;1.20;99.90
6018;DHT22;3037;51.068;13.780;2023-04-06T00:39:33;1.20;99.90
6018;DHT22;3037;51.068;13.780;2023-04-06T00:41:58;1.10;99.90
6018;DHT22;3037;51.068;13.780;2023-04-06T00:44:24;1.30;99.90
6018;DHT22;3037;51.068;13.780;2023-04-06T00:46:50;1.30;99.90
6018;DHT22;3037;51.068;13.780;2023-04-06T00:49:15;1.30;99.90
6018;DHT22;3037;51.068;13.780;2023-04-06T00:51:41;1.30;99.90
6018;DHT22;3037;51.068;13.780;2023-04-06T00:54:06;1.20;99.90
6018;DHT22;3037;51.068;13.780;2023-04-06T00:56:32;1.40;99.90
6018;DHT22;3037;51.068;13.780;2023-04-06T00:58:58;1.50;99.90
6018;DHT22;3037;51.068;13.780;2023-04-06T01:01:24;1.50;99.90
6018;DHT22;3037;51.068;13.780;2023-04-06T01:03:50;1.70;93.80
6018;DHT22;3037;51.068;13.780;2023-04-06T01:06:16;1.50;99.90
6018;DHT22;3037;51.068;13.780;2023-04-06T01:08:41;1.30;99.90
6018;DHT22;3037;51.068;13.780;2023-04-06T01:11:07;1.30;99.90
6018;DHT22;3037;51.068;13.780;2023-04-06T01:13:32;1.20;99.90
6018;DHT22;3037;51.068;13.780;2023-04-06T01:15:58;1.20;99.90
6018;DHT22;3037;51.068;13.780;2023-04-06T01:18:27;1.10;99.90
6018;DHT22;3037;51.068;13.780;2023-04-06T01:20:53;1.10;1.00
6018;DHT22;3037;51.068;13.780;2023-04-06T01:23:19;1.10;1.00
6018;DHT22;3037;51.068;13.780;2023-04-06T01:25:44;1.00;1.00
6018;DHT22;3037;51.068;13.780;2023-04-06T01:28:10;0.90;1.00
6018;DHT22;3037;51.068;13.780;2023-04-06T01:30:35;1.00;1.00
6018;DHT22;3037;51.068;13.780;2023-04-06T01:33:01;0.90;1.00
6018;DHT22;3037;51.068;13.780;2023-04-06T01:35:27;1.10;1.00
6018;DHT22;3037;51.068;13.780;2023-04-06T01:37:53;1.00;1.00
6018;DHT22;3037;51.068;13.780;2023-04-06T01:40:19;1.00;1.00
6018;DHT22;3037;51.068;13.780;2023-04-06T01:42:44;1.00;1.00
6018;DHT22;3037;51.068;13.780;2023-04-06T01:45:10;1.00;1.00
6018;DHT22;3037;51.068;13.780;2023-04-06T01:47:36;1.20;1.00
6018;DHT22;3037;51.068;13.780;2023-04-06T01:50:01;1.10;99.90
6018;DHT22;3037;51.068;13.780;2023-04-06T01:52:30;1.00;99.90
6018;DHT22;3037;51.068;13.780;2023-04-06T01:54:56;1.20;99.90
6018;DHT22;3037;51.068;13.780;2023-04-06T01:57:21;1.20;99.90
6018;DHT22;3037;51.068;13.780;2023-04-06T01:59:47;1.10;1.00
6018;DHT22;3037;51.068;13.780;2023-04-06T02:02:12;1.20;99.90
6018;DHT22;3037;51.068;13.780;2023-04-06T02:04:38;1.20;99.90
6018;DHT22;3037;51.068;13.780;2023-04-06T02:07:04;1.10;1.00
6018;DHT22;3037;51.068;13.780;2023-04-06T02:09:29;2.20;26.90
6018;DHT22;3037;51.068;13.780;2023-04-06T02:11:55;4.00;99.90
6018;DHT22;3037;51.068;13.780;2023-04-06T02:14:21;3.80;1.00
6018;DHT22;3037;51.068;13.780;2023-04-06T02:16:46;2.80;99.90
6018;DHT22;3037;51.068;13.780;2023-04-06T02:19:12;4.60;1.00
6018;DHT22;3037;51.068;13.780;2023-04-06T02:21:37;4.40;1.00
6018;DHT22;3037;51.068;13.780;2023-04-06T02:24:03;5.10;1.00
6018;DHT22;3037;51.068;13.780;2023-04-06T02:26:28;3.80;99.90
6018;DHT22;3037;51.068;13.780;2023-04-06T02:28:54;4.10;99.90
6018;DHT22;3037;51.068;13.780;2023-04-06T02:31:20;3.60;1.00
6018;DHT22;3037;51.068;13.780;2023-04-06T02:33:45;1.90;99.90
6018;DHT22;3037;51.068;13.780;2023-04-06T02:36:11;1.20;1.00
6018;DHT22;3037;51.068;13.780;2023-04-06T02:38:36;0.90;1.00
6018;DHT22;3037;51.068;13.780;2023-04-06T02:41:02;0.70;1.00
6018;DHT22;3037;51.068;13.780;2023-04-06T02:43:27;0.60;1.00
6018;DHT22;3037;51.068;13.780;2023-04-06T02:45:53;0.60;99.90
6018;DHT22;3037;51.068;13.780;2023-04-06T02:48:18;0.50;1.00
6018;DHT22;3037;51.068;13.780;2023-04-06T02:50:44;0.50;1.00
6018;DHT22;3037;51.068;13.780;2023-04-06T02:53:09;0.40;1.00
6018;DHT22;3037;51.068;13.780;2023-04-06T02:55:35;0.30;99.90
6018;DHT22;3037;51.068;13.780;2023-04-06T02:58:00;0.30;1.00
6018;DHT22;3037;51.068;13.780;2023-04-06T03:00:26;0.40;1.00
6018;DHT22;3037;51.068;13.780;2023-04-06T03:02:51;0.30;1.00
6018;DHT22;3037;51.068;13.780;2023-04-06T03:05:17;0.30;99.90
6018;DHT22;3037;51.068;13.780;2023-04-06T03:07:43;0.20;1.00
6018;DHT22;3037;51.068;13.780;2023-04-06T03:10:09;0.10;1.00
6018;DHT22;3037;51.068;13.780;2023-04-06T03:12:35;0.20;1.00
6018;DHT22;3037;51.068;13.780;2023-04-06T03:15:00;0.30;1.00
6018;DHT22;3037;51.068;13.780;2023-04-06T03:17:26;0.50;1.00
6018;DHT22;3037;51.068;13.780;2023-04-06T03:19:51;0.50;99.90
6018;DHT22;3037;51.068;13.780;2023-04-06T03:22:17;0.40;1.00
6018;DHT22;3037;51.068;13.780;2023-04-06T03:24:42;0.30;99.90
6018;DHT22;3037;51.068;13.780;2023-04-06T03:27:07;0.20;1.00
6018;DHT22;3037;51.068;13.780;2023-04-06T03:29:33;0.00;99.90
6018;DHT22;3037;51.068;13.780;2023-04-06T03:31:58;-0.10;1.00
6018;DHT22;3037;51.068;13.780;2023-04-06T03:34:24;-0.20;1.00
6018;DHT22;3037;51.068;13.780;2023-04-06T03:36:50;-0.30;99.90
6018;DHT22;3037;51.068;13.780;2023-04-06T03:39:15;-0.30;1.00
6018;DHT22;3037;51.068;13.780;2023-04-06T03:41:41;-0.30;1.00
6018;DHT22;3037;51.068;13.780;2023-04-06T03:44:06;-0.30;1.00
6018;DHT22;3037;51.068;13.780;2023-04-06T03:46:32;-0.20;1.00
6018;DHT22;3037;51.068;13.780;2023-04-06T03:48:57;-0.10;99.90
6018;DHT22;3037;51.068;13.780;2023-04-06T03:51:23;-0.10;99.90
6018;DHT22;3037;51.068;13.780;2023-04-06T03:53:48;-0.20;1.00
6018;DHT22;3037;51.068;13.780;2023-04-06T03:56:14;-0.10;1.00
6018;DHT22;3037;51.068;13.780;2023-04-06T03:58:39;-0.20;99.90
6018;DHT22;3037;51.068;13.780;2023-04-06T04:01:05;-0.20;99.90
6018;DHT22;3037;51.068;13.780;2023-04-06T04:03:30;-0.20;1.00
6018;DHT22;3037;51.068;13.780;2023-04-06T04:05:56;-0.30;1.00
6018;DHT22;3037;51.068;13.780;2023-04-06T04:08:21;-0.20;99.90
6018;DHT22;3037;51.068;13.780;2023-04-06T04:10:47;-0.30;99.90
6018;DHT22;3037;51.068;13.780;2023-04-06T04:13:12;-0.30;99.90
6018;DHT22;3037;51.068;13.780;2023-04-06T04:15:38;-0.40;99.90
6018;DHT22;3037;51.068;13.780;2023-04-06T04:18:03;-0.40;1.00
6018;DHT22;3037;51.068;13.780;2023-04-06T04:20:29;-0.40;99.90
6018;DHT22;3037;51.068;13.780;2023-04-06T04:22:54;-0.50;99.90
6018;DHT22;3037;51.068;13.780;2023-04-06T04:25:20;-0.50;1.00
6018;DHT22;3037;51.068;13.780;2023-04-06T04:27:46;-0.50;1.00
6018;DHT22;3037;51.068;13.780;2023-04-06T04:30:12;-0.50;99.90
6018;DHT22;3037;51.068;13.780;2023-04-06T04:32:37;-0.30;99.90
6018;DHT22;3037;51.068;13.780;2023-04-06T04:35:03;-0.20;99.90
6018;DHT22;3037;51.068;13.780;2023-04-06T04:37:29;-0.20;99.90
6018;DHT22;3037;51.068;13.780;2023-04-06T04:39:54;-0.10;1.00
6018;DHT22;3037;51.068;13.780;2023-04-06T04:42:20;-0.20;1.00
6018;DHT22;3037;51.068;13.780;2023-04-06T04:44:45;-0.20;1.00
6018;DHT22;3037;51.068;13.780;2023-04-06T04:47:11;0.00;99.90
6018;DHT22;3037;51.068;13.780;2023-04-06T04:49:36;0.00;1.00
6018;DHT22;3037;51.068;13.780;2023-04-06T04:52:02;-0.10;99.90
6018;DHT22;3037;51.068;13.780;2023-04-06T04:54:27;-0.20;1.00
6018;DHT22;3037;51.068;13.780;2023-04-06T04:56:53;-0.10;1.00
6018;DHT22;3037;51.068;13.780;2023-04-06T04:59:18;-0.20;1.00
6018;DHT22;3037;51.068;13.780;2023-04-06T05:01:44;-0.20;99.90
6018;DHT22;3037;51.068;13.780;2023-04-06T05:04:09;-0.10;1.00
6018;DHT22;3037;51.068;13.780;2023-04-06T05:06:35;0.00;1.00
6018;DHT22;3037;51.068;13.780;2023-04-06T05:09:00;0.10;1.00
6018;DHT22;3037;51.068;13.780;2023-04-06T05:11:26;0.10;97.70
6018;DHT22;3037;51.068;13.780;2023-04-06T05:13:51;0.00;17.90
6018;DHT22;3037;51.068;13.780;2023-04-06T05:16:17;0.00;99.90
6018;DHT22;3037;51.068;13.780;2023-04-06T05:18:42;0.10;99.90
6018;DHT22;3037;51.068;13.780;2023-04-06T05:21:09;0.20;99.90
6018;DHT22;3037;51.068;13.780;2023-04-06T05:23:35;0.30;1.00
6018;DHT22;3037;51.068;13.780;2023-04-06T05:26:01;0.30;1.00
6018;DHT22;3037;51.068;13.780;2023-04-06T05:28:26;0.40;1.00
6018;DHT22;3037;51.068;13.780;2023-04-06T05:30:53;0.50;1.00
6018;DHT22;3037;51.068;13.780;2023-04-06T05:33:18;0.70;99.90
6018;DHT22;3037;51.068;13.780;2023-04-06T05:35:44;0.90;99.90
6018;DHT22;3037;51.068;13.780;2023-04-06T05:38:09;1.00;1.00
6018;DHT22;3037;51.068;13.780;2023-04-06T05:40:36;0.80;99.90
6018;DHT22;3037;51.068;13.780;2023-04-06T05:43:03;0.90;51.80
6018;DHT22;3037;51.068;13.780;2023-04-06T05:45:28;1.00;1.00
6018;DHT22;3037;51.068;13.780;2023-04-06T05:47:54;1.10;1.00
6018;DHT22;3037;51.068;13.780;2023-04-06T05:50:20;1.10;1.00
6018;DHT22;3037;51.068;13.780;2023-04-06T05:52:45;1.10;1.00
6018;DHT22;3037;51.068;13.780;2023-04-06T05:55:12;1.20;1.00
6018;DHT22;3037;51.068;13.780;2023-04-06T05:57:37;1.20;1.00
6018;DHT22;3037;51.068;13.780;2023-04-06T06:00:04;1.30;1.00
6018;DHT22;3037;51.068;13.780;2023-04-06T06:02:31;1.40;1.00
6018;DHT22;3037;51.068;13.780;2023-04-06T06:04:57;1.50;1.00
6018;DHT22;3037;51.068;13.780;2023-04-06T06:07:23;1.60;1.00
6018;DHT22;3037;51.068;13.780;2023-04-06T06:09:49;2.20;99.90
6018;DHT22;3037;51.068;13.780;2023-04-06T06:12:14;4.50;1.00
6018;DHT22;3037;51.068;13.780;2023-04-06T06:14:40;6.80;1.00
6018;DHT22;3037;51.068;13.780;2023-04-06T06:17:05;6.90;1.00
6018;DHT22;3037;51.068;13.780;2023-04-06T06:19:31;5.20;1.00
6018;DHT22;3037;51.068;13.780;2023-04-06T06:21:56;6.90;1.00
6018;DHT22;3037;51.068;13.780;2023-04-06T06:24:22;8.60;1.00
6018;DHT22;3037;51.068;13.780;2023-04-06T06:26:47;10.10;1.00
6018;DHT22;3037;51.068;13.780;2023-04-06T06:29:14;10.30;1.00
6018;DHT22;3037;51.068;13.780;2023-04-06T06:31:40;11.30;1.00
6018;DHT22;3037;51.068;13.780;2023-04-06T06:34:05;11.30;1.00
6018;DHT22;3037;51.068;13.780;2023-04-06T06:36:31;12.20;1.00
6018;DHT22;3037;51.068;13.780;2023-04-06T06:38:57;13.00;1.00
6018;DHT22;3037;51.068;13.780;2023-04-06T06:41:25;14.70;1.00
6018;DHT22;3037;51.068;13.780;2023-04-06T06:43:51;14.80;1.00
6018;DHT22;3037;51.068;13.780;2023-04-06T06:46:17;15.00;1.00
6018;DHT22;3037;51.068;13.780;2023-04-06T06:48:42;14.40;1.00
6018;DHT22;3037;51.068;13.780;2023-04-06T06:51:08;13.80;1.00
6018;DHT22;3037;51.068;13.780;2023-04-06T06:53:35;13.90;1.00
6018;DHT22;3037;51.068;13.780;2023-04-06T06:56:00;13.90;1.00
6018;DHT22;3037;51.068;13.780;2023-04-06T06:58:26;14.70;1.00
6018;DHT22;3037;51.068;13.780;2023-04-06T07:00:58;15.60;1.00
6018;DHT22;3037;51.068;13.780;2023-04-06T07:03:24;15.70;1.00
6018;DHT22;3037;51.068;13.780;2023-04-06T07:05:50;15.80;1.00
6018;DHT22;3037;51.068;13.780;2023-04-06T07:08:20;16.30;1.00
6018;DHT22;3037;51.068;13.780;2023-04-06T07:10:45;15.80;1.00
6018;DHT22;3037;51.068;13.780;2023-04-06T07:13:11;17.60;1.00
6018;DHT22;3037;51.068;13.780;2023-04-06T07:15:37;19.10;1.00
6018;DHT22;3037;51.068;13.780;2023-04-06T07:18:03;18.80;1.00
6018;DHT22;3037;51.068;13.780;2023-04-06T07:20:28;18.10;1.00
6018;DHT22;3037;51.068;13.780;2023-04-06T07:22:54;17.70;1.00
6018;DHT22;3037;51.068;13.780;2023-04-06T07:25:20;18.00;1.00
6018;DHT22;3037;51.068;13.780;2023-04-06T07:27:45;18.80;1.00
6018;DHT22;3037;51.068;13.780;2023-04-06T07:30:11;20.20;1.00
6018;DHT22;3037;51.068;13.780;2023-04-06T07:32:37;20.80;1.00
6018;DHT22;3037;51.068;13.780;2023-04-06T07:35:03;21.60;1.00
6018;DHT22;3037;51.068;13.780;2023-04-06T07:37:28;21.10;1.00
6018;DHT22;3037;51.068;13.780;2023-04-06T07:39:54;21.50;1.00
6018;DHT22;3037;51.068;13.780;2023-04-06T07:42:19;22.40;1.00
6018;DHT22;3037;51.068;13.780;2023-04-06T07:44:45;22.00;1.00
6018;DHT22;3037;51.068;13.780;2023-04-06T07:47:11;20.90;1.00
6018;DHT22;3037;51.068;13.780;2023-04-06T07:49:36;21.40;1.00
6018;DHT22;3037;51.068;13.780;2023-04-06T07:52:02;19.90;1.00
6018;DHT22;3037;51.068;13.780;2023-04-06T07:54:28;20.10;1.00
6018;DHT22;3037;51.068;13.780;2023-04-06T07:56:54;21.80;1.00
6018;DHT22;3037;51.068;13.780;2023-04-06T07:59:19;23.50;1.00
6018;DHT22;3037;51.068;13.780;2023-04-06T08:01:45;23.70;1.00
6018;DHT22;3037;51.068;13.780;2023-04-06T08:04:11;24.20;1.00
6018;DHT22;3037;51.068;13.780;2023-04-06T08:06:36;22.40;1.00
6018;DHT22;3037;51.068;13.780;2023-04-06T08:09:02;21.50;1.00
6018;DHT22;3037;51.068;13.780;2023-04-06T08:11:28;23.90;1.00
6018;DHT22;3037;51.068;13.780;2023-04-06T08:13:54;23.10;1.00
6018;DHT22;3037;51.068;13.780;2023-04-06T08:16:22;22.50;1.00
6018;DHT22;3037;51.068;13.780;2023-04-06T08:18:47;24.00;1.00
6018;DHT22;3037;51.068;13.780;2023-04-06T08:21:13;23.80;1.00
6018;DHT22;3037;51.068;13.780;2023-04-06T08:23:38;23.50;1.00
6018;DHT22;3037;51.068;13.780;2023-04-06T08:26:04;22.40;1.00
6018;DHT22;3037;51.068;13.780;2023-04-06T08:28:30;23.60;1.00
6018;DHT22;3037;51.068;13.780;2023-04-06T08:30:55;22.20;1.00
6018;DHT22;3037;51.068;13.780;2023-04-06T08:35:52;24.40;1.00
6018;DHT22;3037;51.068;13.780;2023-04-06T08:38:17;24.40;1.00
6018;DHT22;3037;51.068;13.780;2023-04-06T08:40:43;23.70;1.00
6018;DHT22;3037;51.068;13.780;2023-04-06T08:43:13;24.50;1.00
6018;DHT22;3037;51.068;13.780;2023-04-06T08:45:41;24.90;1.00
6018;DHT22;3037;51.068;13.780;2023-04-06T08:48:08;23.70;1.00
6018;DHT22;3037;51.068;13.780;2023-04-06T08:50:34;23.60;1.00
6018;DHT22;3037;51.068;13.780;2023-04-06T08:53:01;23.50;1.00
6018;DHT22;3037;51.068;13.780;2023-04-06T08:55:27;22.90;1.00
6018;DHT22;3037;51.068;13.780;2023-04-06T08:57:52;23.70;1.00
6018;DHT22;3037;51.068;13.780;2023-04-06T09:00:20;24.00;1.00
6018;DHT22;3037;51.068;13.780;2023-04-06T09:02:46;23.40;1.00
6018;DHT22;3037;51.068;13.780;2023-04-06T09:05:12;22.80;1.00
6018;DHT22;3037;51.068;13.780;2023-04-06T09:07:38;22.40;1.00
6018;DHT22;3037;51.068;13.780;2023-04-06T09:10:07;22.00;1.00
6018;DHT22;3037;51.068;13.780;2023-04-06T09:12:33;23.40;1.00
6018;DHT22;3037;51.068;13.780;2023-04-06T09:14:59;24.40;1.00
6018;DHT22;3037;51.068;13.780;2023-04-06T09:17:30;23.90;1.00
6018;DHT22;3037;51.068;13.780;2023-04-06T09:19:57;24.70;1.00
6018;DHT22;3037;51.068;13.780;2023-04-06T09:22:23;23.50;1.00
6018;DHT22;3037;51.068;13.780;2023-04-06T09:24:52;22.70;1.00
6018;DHT22;3037;51.068;13.780;2023-04-06T09:27:29;23.10;1.00
6018;DHT22;3037;51.068;13.780;2023-04-06T09:30:03;22.90;1.00
6018;DHT22;3037;51.068;13.780;2023-04-06T09:32:30;22.40;1.00
6018;DHT22;3037;51.068;13.780;2023-04-06T09:35:06;22.30;1.00
6018;DHT22;3037;51.068;13.780;2023-04-06T09:37:32;22.30;1.00
6018;DHT22;3037;51.068;13.780;2023-04-06T09:40:07;21.60;1.00
6018;DHT22;3037;51.068;13.780;2023-04-06T09:42:33;22.60;1.00
6018;DHT22;3037;51.068;13.780;2023-04-06T09:45:00;23.80;1.00
6018;DHT22;3037;51.068;13.780;2023-04-06T09:47:26;24.20;1.00
6018;DHT22;3037;51.068;13.780;2023-04-06T09:49:56;23.00;1.00
6018;DHT22;3037;51.068;13.780;2023-04-06T09:52:27;23.70;1.00
6018;DHT22;3037;51.068;13.780;2023-04-06T09:54:55;23.80;1.00
6018;DHT22;3037;51.068;13.780;2023-04-06T09:57:50;23.80;1.00
6018;DHT22;3037;51.068;13.780;2023-04-06T10:00:21;22.30;1.00
6018;DHT22;3037;51.068;13.780;2023-04-06T10:03:02;22.90;1.00
6018;DHT22;3037;51.068;13.780;2023-04-06T10:08:11;21.80;1.00
6018;DHT22;3037;51.068;13.780;2023-04-06T10:10:37;22.80;1.00
6018;DHT22;3037;51.068;13.780;2023-04-06T10:13:03;22.10;1.00
6018;DHT22;3037;51.068;13.780;2023-04-06T10:15:30;19.80;1.00
6018;DHT22;3037;51.068;13.780;2023-04-06T10:17:57;18.90;1.00
6018;DHT22;3037;51.068;13.780;2023-04-06T10:20:46;18.20;1.00
6018;DHT22;3037;51.068;13.780;2023-04-06T10:23:19;16.80;1.00
6018;DHT22;3037;51.068;13.780;2023-04-06T10:25:57;16.60;1.00
6018;DHT22;3037;51.068;13.780;2023-04-06T10:28:23;16.40;1.00
6018;DHT22;3037;51.068;13.780;2023-04-06T10:30:49;16.80;1.00
6018;DHT22;3037;51.068;13.780;2023-04-06T10:33:21;16.30;1.00
6018;DHT22;3037;51.068;13.780;2023-04-06T10:35:47;16.50;1.00
6018;DHT22;3037;51.068;13.780;2023-04-06T10:38:12;16.70;1.00
6018;DHT22;3037;51.068;13.780;2023-04-06T10:40:46;18.00;1.00
6018;DHT22;3037;51.068;13.780;2023-04-06T10:43:20;17.40;1.00
6018;DHT22;3037;51.068;13.780;2023-04-06T10:45:55;18.10;1.00
6018;DHT22;3037;51.068;13.780;2023-04-06T10:48:21;19.20;1.00
6018;DHT22;3037;51.068;13.780;2023-04-06T10:50:48;19.00;1.00
6018;DHT22;3037;51.068;13.780;2023-04-06T10:53:25;19.10;1.00
6018;DHT22;3037;51.068;13.780;2023-04-06T10:55:52;19.70;1.00
6018;DHT22;3037;51.068;13.780;2023-04-06T10:58:18;18.70;1.00
6018;DHT22;3037;51.068;13.780;2023-04-06T11:00:45;19.30;1.00
6018;DHT22;3037;51.068;13.780;2023-04-06T11:03:11;18.20;1.00
6018;DHT22;3037;51.068;13.780;2023-04-06T11:05:37;18.40;1.00
6018;DHT22;3037;51.068;13.780;2023-04-06T11:08:02;16.70;1.00
6018;DHT22;3037;51.068;13.780;2023-04-06T11:10:28;16.20;1.00
6018;DHT22;3037;51.068;13.780;2023-04-06T11:12:55;15.20;1.00
6018;DHT22;3037;51.068;13.780;2023-04-06T11:15:21;15.10;1.00
6018;DHT22;3037;51.068;13.780;2023-04-06T11:17:47;15.60;1.00
6018;DHT22;3037;51.068;13.780;2023-04-06T11:20:14;15.50;1.00
6018;DHT22;3037;51.068;13.780;2023-04-06T11:22:52;15.40;1.00
6018;DHT22;3037;51.068;13.780;2023-04-06T11:25:18;14.90;1.00
6018;DHT22;3037;51.068;13.780;2023-04-06T11:27:46;15.20;1.00
6018;DHT22;3037;51.068;13.780;2023-04-06T11:30:12;16.10;1.00
6018;DHT22;3037;51.068;13.780;2023-04-06T11:32:42;16.30;1.00
6018;DHT22;3037;51.068;13.780;2023-04-06T11:35:20;17.70;1.00
6018;DHT22;3037;51.068;13.780;2023-04-06T11:37:46;16.90;1.00
6018;DHT22;3037;51.068;13.780;2023-04-06T11:40:12;16.80;1.00
6018;DHT22;3037;51.068;13.780;2023-04-06T11:42:37;16.80;1.00
6018;DHT22;3037;51.068;13.780;2023-04-06T11:45:03;16.40;1.00
6018;DHT22;3037;51.068;13.780;2023-04-06T11:47:32;16.10;1.00
6018;DHT22;3037;51.068;13.780;2023-04-06T11:50:12;16.50;1.00
6018;DHT22;3037;51.068;13.780;2023-04-06T11:52:42;16.10;1.00
6018;DHT22;3037;51.068;13.780;2023-04-06T11:55:15;16.80;1.00
6018;DHT22;3037;51.068;13.780;2023-04-06T11:57:42;16.70;1.00
6018;DHT22;3037;51.068;13.780;2023-04-06T12:00:08;16.90;1.00
6018;DHT22;3037;51.068;13.780;2023-04-06T12:02:35;17.00;1.00
6018;DHT22;3037;51.068;13.780;2023-04-06T12:05:01;16.70;1.00
6018;DHT22;3037;51.068;13.780;2023-04-06T12:07:28;17.00;1.00
6018;DHT22;3037;51.068;13.780;2023-04-06T12:09:53;16.30;1.00
6018;DHT22;3037;51.068;13.780;2023-04-06T12:12:19;16.70;1.00
6018;DHT22;3037;51.068;13.780;2023-04-06T12:14:44;17.30;1.00
6018;DHT22;3037;51.068;13.780;2023-04-06T12:17:10;16.20;1.00
6018;DHT22;3037;51.068;13.780;2023-04-06T12:19:35;16.00;1.00
6018;DHT22;3037;51.068;13.780;2023-04-06T12:22:01;17.60;1.00
6018;DHT22;3037;51.068;13.780;2023-04-06T12:24:27;17.90;1.00
6018;DHT22;3037;51.068;13.780;2023-04-06T12:26:53;17.90;1.00
6018;DHT22;3037;51.068;13.780;2023-04-06T12:29:19;17.20;1.00
6018;DHT22;3037;51.068;13.780;2023-04-06T12:31:45;17.30;1.00
6018;DHT22;3037;51.068;13.780;2023-04-06T12:34:11;16.50;1.00
6018;DHT22;3037;51.068;13.780;2023-04-06T12:36:37;15.90;1.00
6018;DHT22;3037;51.068;13.780;2023-04-06T12:39:03;16.50;1.00
6018;DHT22;3037;51.068;13.780;2023-04-06T12:41:29;16.30;1.00
6018;DHT22;3037;51.068;13.780;2023-04-06T12:43:55;15.10;1.00
6018;DHT22;3037;51.068;13.780;2023-04-06T12:46:21;15.70;1.00
6018;DHT22;3037;51.068;13.780;2023-04-06T12:48:47;16.20;1.00
6018;DHT22;3037;51.068;13.780;2023-04-06T12:51:13;17.30;1.00
6018;DHT22;3037;51.068;13.780;2023-04-06T12:53:38;17.30;1.00
6018;DHT22;3037;51.068;13.780;2023-04-06T12:56:15;17.60;1.00
6018;DHT22;3037;51.068;13.780;2023-04-06T12:58:41;17.60;1.00
6018;DHT22;3037;51.068;13.780;2023-04-06T13:01:07;17.30;1.00
6018;DHT22;3037;51.068;13.780;2023-04-06T13:03:33;17.10;1.00
6018;DHT22;3037;51.068;13.780;2023-04-06T13:06:00;16.60;1.00
6018;DHT22;3037;51.068;13.780;2023-04-06T13:08:26;16.30;1.00
6018;DHT22;3037;51.068;13.780;2023-04-06T13:10:52;15.80;1.00
6018;DHT22;3037;51.068;13.780;2023-04-06T13:13:24;15.30;1.00
6018;DHT22;3037;51.068;13.780;2023-04-06T13:15:50;14.80;1.00
6018;DHT22;3037;51.068;13.780;2023-04-06T13:18:16;15.60;1.00
6018;DHT22;3037;51.068;13.780;2023-04-06T13:20:42;16.60;1.00
6018;DHT22;3037;51.068;13.780;2023-04-06T13:23:07;16.60;1.00
6018;DHT22;3037;51.068;13.780;2023-04-06T13:25:33;17.00;1.00
6018;DHT22;3037;51.068;13.780;2023-04-06T13:27:59;17.00;1.00
6018;DHT22;3037;51.068;13.780;2023-04-06T13:30:24;17.50;1.00
6018;DHT22;3037;51.068;13.780;2023-04-06T13:32:50;16.80;1.00
6018;DHT22;3037;51.068;13.780;2023-04-06T13:35:16;17.40;1.00
6018;DHT22;3037;51.068;13.780;2023-04-06T13:37:43;15.90;1.00
6018;DHT22;3037;51.068;13.780;2023-04-06T13:40:10;15.40;1.00
6018;DHT22;3037;51.068;13.780;2023-04-06T13:42:35;15.80;1.00
6018;DHT22;3037;51.068;13.780;2023-04-06T13:45:01;16.60;1.00
6018;DHT22;3037;51.068;13.780;2023-04-06T13:47:27;16.00;1.00
6018;DHT22;3037;51.068;13.780;2023-04-06T13:49:53;15.80;1.00
6018;DHT22;3037;51.068;13.780;2023-04-06T13:52:19;16.30;1.00
6018;DHT22;3037;51.068;13.780;2023-04-06T13:54:44;16.10;1.00
6018;DHT22;3037;51.068;13.780;2023-04-06T13:57:10;16.40;1.00
6018;DHT22;3037;51.068;13.780;2023-04-06T13:59:37;16.70;1.00
6018;DHT22;3037;51.068;13.780;2023-04-06T14:02:05;16.30;1.00
6018;DHT22;3037;51.068;13.780;2023-04-06T14:04:30;15.50;1.00
6018;DHT22;3037;51.068;13.780;2023-04-06T14:06:57;15.80;1.00
6018;DHT22;3037;51.068;13.780;2023-04-06T14:09:23;15.10;1.00
6018;DHT22;3037;51.068;13.780;2023-04-06T14:11:49;15.00;1.00
6018;DHT22;3037;51.068;13.780;2023-04-06T14:14:15;15.00;1.00
6018;DHT22;3037;51.068;13.780;2023-04-06T14:16:40;15.20;1.00
6018;DHT22;3037;51.068;13.780;2023-04-06T14:19:11;15.30;1.00
6018;DHT22;3037;51.068;13.780;2023-04-06T14:21:38;15.30;1.00
6018;DHT22;3037;51.068;13.780;2023-04-06T14:24:07;14.40;1.00
6018;DHT22;3037;51.068;13.780;2023-04-06T14:26:32;14.70;1.00
6018;DHT22;3037;51.068;13.780;2023-04-06T14:29:02;14.40;1.00
6018;DHT22;3037;51.068;13.780;2023-04-06T14:31:28;14.20;1.00
6018;DHT22;3037;51.068;13.780;2023-04-06T14:33:53;13.90;1.00
6018;DHT22;3037;51.068;13.780;2023-04-06T14:36:19;13.10;1.00
6018;DHT22;3037;51.068;13.780;2023-04-06T14:38:45;13.70;1.00
6018;DHT22;3037;51.068;13.780;2023-04-06T14:41:17;13.60;1.00
6018;DHT22;3037;51.068;13.780;2023-04-06T14:43:44;13.70;1.00
6018;DHT22;3037;51.068;13.780;2023-04-06T14:46:09;13.20;1.00
6018;DHT22;3037;51.068;13.780;2023-04-06T14:48:35;12.60;1.00
6018;DHT22;3037;51.068;13.780;2023-04-06T14:51:01;12.80;1.00
6018;DHT22;3037;51.068;13.780;2023-04-06T14:53:27;12.80;1.00
6018;DHT22;3037;51.068;13.780;2023-04-06T14:55:53;13.00;1.00
6018;DHT22;3037;51.068;13.780;2023-04-06T14:58:20;12.80;1.00
6018;DHT22;3037;51.068;13.780;2023-04-06T15:00:45;13.30;1.00
6018;DHT22;3037;51.068;13.780;2023-04-06T15:03:11;13.60;1.00
6018;DHT22;3037;51.068;13.780;2023-04-06T15:05:36;13.80;1.00
6018;DHT22;3037;51.068;13.780;2023-04-06T15:08:02;13.50;1.00
6018;DHT22;3037;51.068;13.780;2023-04-06T15:10:31;13.50;1.00
6018;DHT22;3037;51.068;13.780;2023-04-06T15:12:56;13.80;1.00
6018;DHT22;3037;51.068;13.780;2023-04-06T15:15:22;13.60;1.00
6018;DHT22;3037;51.068;13.780;2023-04-06T15:17:47;13.60;1.00
6018;DHT22;3037;51.068;13.780;2023-04-06T15:20:13;14.00;1.00
6018;DHT22;3037;51.068;13.780;2023-04-06T15:22:38;14.00;1.00
6018;DHT22;3037;51.068;13.780;2023-04-06T15:25:04;13.70;1.00
6018;DHT22;3037;51.068;13.780;2023-04-06T15:27:30;13.40;1.00
6018;DHT22;3037;51.068;13.780;2023-04-06T15:29:55;13.10;1.00
6018;DHT22;3037;51.068;13.780;2023-04-06T15:32:23;13.20;1.00
6018;DHT22;3037;51.068;13.780;2023-04-06T15:34:49;13.40;1.00
6018;DHT22;3037;51.068;13.780;2023-04-06T15:37:14;13.30;1.00
6018;DHT22;3037;51.068;13.780;2023-04-06T15:39:40;13.20;1.00
6018;DHT22;3037;51.068;13.780;2023-04-06T15:42:05;12.80;1.00
6018;DHT22;3037;51.068;13.780;2023-04-06T15:44:31;12.90;1.00
6018;DHT22;3037;51.068;13.780;2023-04-06T15:46:56;12.60;1.00
6018;DHT22;3037;51.068;13.780;2023-04-06T15:49:22;12.30;1.00
6018;DHT22;3037;51.068;13.780;2023-04-06T15:51:48;12.60;1.00
6018;DHT22;3037;51.068;13.780;2023-04-06T15:54:14;12.90;1.00
6018;DHT22;3037;51.068;13.780;2023-04-06T15:56:40;12.70;1.00
6018;DHT22;3037;51.068;13.780;2023-04-06T15:59:07;12.80;1.00
6018;DHT22;3037;51.068;13.780;2023-04-06T16:01:32;12.50;1.00
6018;DHT22;3037;51.068;13.780;2023-04-06T16:03:58;12.60;1.00